British Ensign — MMER9 — position and weather

sailwx.info

Track history (hours):
 
Tides and Currents Weather Stations Pressure Air Temp Water Temp Dewpoint Dewpoint Depression Visibility Wind Speed Wind Dir Waves Ship Positions

British Ensign

Last reported at 2016-Aug-23 11:31 UTC. Time now 2016-Aug-25 04:28 UTC.
Position S 29°37' E 032°00'.

Length 184.2 m; beam 27.4 m; draft 11.3 m.

Type: Ship. MMSI: 235010980.

Date/timePositionNaut miles runAvg speedWind from/ knotsBaromVisibWave heightAir tempDewpointWater temp
2016-Aug-23 11:31S 29°37' E 032°00'1111.8
2016-Aug-23 10:33S 29°40' E 031°48'1313.0
2016-Aug-23 09:34S 29°40' E 031°33'1414.5
2016-Aug-23 08:33S 29°43' E 031°17'4 4.0
2016-Aug-23 07:33S 29°39' E 031°17'4 4.0
2016-Aug-23 06:33S 29°43' E 031°19'6 6.1
2016-Aug-23 05:33S 29°48' E 031°22'3 5.7
2016-Aug-23 05:00S 29°48' E 031°18'510.4 220 / 171030.510.8 1.516.2 9.1
2016-Aug-23 04:33S 29°48' E 031°23'1 1.0
2016-Aug-23 03:34S 29°48' E 031°24'1 0.9
2016-Aug-23 02:34S 29°48' E 031°25'1 0.6
2016-Aug-23 01:34S 29°48' E 031°26'0 0.2
2016-Aug-23 00:33S 29°48' E 031°26'1 0.7
2016-Aug-22 23:33S 29°48' E 031°27'1 1.0
2016-Aug-22 22:34S 29°47' E 031°27'2 1.6
2016-Aug-22 21:34S 29°46' E 031°28'2 2.0
2016-Aug-22 20:34S 29°45' E 031°30'2 2.3
2016-Aug-22 19:34S 29°42' E 031°29'2 2.1
2016-Aug-22 18:34S 29°40' E 031°28'2 1.8
2016-Aug-22 17:33S 29°39' E 031°28'1 1.4
2016-Aug-22 16:34S 29°37' E 031°27'1 1.2
2016-Aug-22 15:34S 29°36' E 031°27'4 4.4
2016-Aug-22 14:34S 29°40' E 031°25'1010.0
2016-Aug-22 13:34S 29°50' E 031°23'3 2.6
2016-Aug-22 12:33S 29°52' E 031°24'2 2.4
2016-Aug-22 11:34S 29°51' E 031°26'2 1.8
2016-Aug-22 10:34S 29°49' E 031°26'2 2.3
2016-Aug-22 09:34S 29°47' E 031°27'3 3.4
2016-Aug-22 08:33S 29°44' E 031°29'3 2.9
2016-Aug-22 07:34S 29°42' E 031°31'1312.9
2016-Aug-22 06:34S 29°53' E 031°23'8 7.6
2016-Aug-22 05:33S 29°60' E 031°20'6 5.8
2016-Aug-22 04:33S 30°05' E 031°18'5 4.6
2016-Aug-22 03:33S 30°10' E 031°18'3 3.5
2016-Aug-22 02:33S 30°13' E 031°19'3 2.7
2016-Aug-22 01:34S 30°16' E 031°20'3 2.6
2016-Aug-22 00:33S 30°18' E 031°22'7 7.4
2016-Aug-21 23:33S 30°11' E 031°24'10 9.8
2016-Aug-21 22:33S 30°01' E 031°24'8 8.3
2016-Aug-21 21:33S 29°53' E 031°23'7 7.3
2016-Aug-21 20:33S 29°45' E 031°25'6 5.6
2016-Aug-21 19:33S 29°41' E 031°21'7 7.1
2016-Aug-21 18:33S 29°42' E 031°13'2 1.9
2016-Aug-21 17:33S 29°43' E 031°11'0 0.0
2016-Aug-21 16:33S 29°43' E 031°11'0 0.0
2016-Aug-21 15:34S 29°43' E 031°11'0 0.0
2016-Aug-21 14:33S 29°43' E 031°11'0 0.0
2016-Aug-21 13:33S 29°43' E 031°11'0 0.0
2016-Aug-21 12:33S 29°43' E 031°11'0 0.0
2016-Aug-21 11:33S 29°43' E 031°11'0 0.0
2016-Aug-21 10:33S 29°43' E 031°11'4 7.4
2016-Aug-21 10:00S 29°42' E 031°06'4 9.3 030 / 41015.7 5.4 20.014.922.0
2016-Aug-21 09:33S 29°43' E 031°11'0 0.0
2016-Aug-21 08:31S 29°43' E 031°11'0 0.0
2016-Aug-21 07:31S 29°43' E 031°11'0 0.0
2016-Aug-21 06:32S 29°43' E 031°11'0 0.0
2016-Aug-21 05:31S 29°43' E 031°11'0 0.0
2016-Aug-21 04:28S 29°43' E 031°11'0 0.0
2016-Aug-21 03:32S 29°43' E 031°11'0 0.0
2016-Aug-21 02:31S 29°43' E 031°11'0 0.0
2016-Aug-21 01:31S 29°43' E 031°11'0 0.0
2016-Aug-21 00:31S 29°43' E 031°11'0 0.0
2016-Aug-20 23:31S 29°43' E 031°11'0 0.0
2016-Aug-20 22:32S 29°43' E 031°11'0 0.0
2016-Aug-20 21:31S 29°43' E 031°11'0 0.0
2016-Aug-20 20:31S 29°43' E 031°11'0 0.0
2016-Aug-20 19:31S 29°43' E 031°11'0 0.0
2016-Aug-20 18:28S 29°43' E 031°11'0 0.0
2016-Aug-20 17:31S 29°43' E 031°11'0 0.0
2016-Aug-20 16:31S 29°43' E 031°11'2 1.6
2016-Aug-20 15:34S 29°44' E 031°10'1111.0
2016-Aug-20 14:34S 29°53' E 031°03'1 0.6
2016-Aug-20 13:31S 29°53' E 031°02'0 0.0
2016-Aug-19 10:33S 29°53' E 031°02'5 4.6
2016-Aug-19 09:34S 29°50' E 031°05'6 6.4
2016-Aug-19 08:33S 29°45' E 031°10'2 1.8
2016-Aug-19 07:33S 29°43' E 031°10'0 0.0
2016-Aug-19 06:32S 29°43' E 031°10'0 0.0
2016-Aug-19 05:32S 29°43' E 031°10'4 6.5
2016-Aug-19 05:00S 29°42' E 031°06'4 0.4 1014.9 5.4 19.415.7
2016-Aug-18 20:26S 29°43' E 031°10'0 0.0
2016-Aug-18 19:32S 29°43' E 031°10'0 0.0
2016-Aug-18 18:32S 29°43' E 031°10'0 0.0
2016-Aug-18 17:23S 29°43' E 031°10'0 0.0
2016-Aug-18 16:29S 29°43' E 031°10'0 0.0
2016-Aug-18 15:29S 29°43' E 031°10'0 0.1
2016-Aug-18 14:31S 29°43' E 031°10'0 0.0
2016-Aug-18 13:31S 29°43' E 031°10'0 0.0
2016-Aug-18 12:31S 29°43' E 031°10'0 0.0
2016-Aug-18 11:31S 29°43' E 031°10'0 0.0
2016-Aug-18 10:31S 29°43' E 031°10'4 6.7
2016-Aug-18 10:00S 29°42' E 031°06'4 7.5 030 / 101022.710.8 0.522.018.923.0
2016-Aug-18 09:31S 29°43' E 031°10'4 6.7
2016-Aug-18 09:00S 29°42' E 031°06'4 6.7 030 / 101022.710.8 0.522.018.923.0
2016-Aug-18 08:28S 29°43' E 031°10'0 0.0
2016-Aug-18 07:31S 29°43' E 031°10'0 0.1
2016-Aug-18 06:31S 29°43' E 031°10'0 0.0
2016-Aug-18 05:31S 29°43' E 031°10'4 6.7
2016-Aug-18 05:00S 29°42' E 031°06'4 7.5 1023.6 5.4 18.917.3
2016-Aug-18 04:31S 29°43' E 031°10'0 0.0
2016-Aug-18 03:28S 29°43' E 031°10'0 0.0
2016-Aug-18 02:31S 29°43' E 031°10'0 0.1
2016-Aug-18 01:31S 29°43' E 031°10'0 0.1
2016-Aug-18 00:31S 29°43' E 031°10'0 0.1
2016-Aug-17 23:31S 29°43' E 031°10'0 0.0
2016-Aug-17 22:28S 29°43' E 031°10'0 0.0
2016-Aug-17 21:32S 29°43' E 031°10'0 0.0
2016-Aug-17 20:32S 29°43' E 031°10'0 0.0
2016-Aug-17 19:32S 29°43' E 031°10'0 0.1
2016-Aug-17 18:29S 29°43' E 031°10'0 0.0
2016-Aug-17 17:32S 29°43' E 031°10'0 0.0
2016-Aug-17 16:33S 29°43' E 031°10'0 0.0
2016-Aug-17 15:33S 29°43' E 031°10'0 0.0
2016-Aug-17 14:30S 29°43' E 031°10'0 0.0
2016-Aug-17 13:33S 29°43' E 031°10'0 0.0
2016-Aug-17 12:33S 29°43' E 031°10'0 0.0
2016-Aug-17 11:33S 29°43' E 031°10'0 0.0
2016-Aug-17 10:30S 29°43' E 031°10'0 0.1
2016-Aug-17 09:33S 29°43' E 031°10'4 6.3
2016-Aug-17 09:00S 29°42' E 031°06'4 8.0 050 / 131027.410.8 22.018.922.0
2016-Aug-17 08:33S 29°43' E 031°10'0 0.0
2016-Aug-17 07:33S 29°43' E 031°10'0 0.0
2016-Aug-17 06:34S 29°43' E 031°10'0 0.0
2016-Aug-17 05:33S 29°43' E 031°10'4 6.3
2016-Aug-17 05:00S 29°42' E 031°06'4 7.1 170 / 71028.0 5.4 0.5
2016-Aug-17 04:30S 29°43' E 031°10'0 0.0
2016-Aug-17 03:33S 29°43' E 031°10'0 0.0
2016-Aug-17 02:33S 29°43' E 031°10'0 0.0
2016-Aug-17 01:33S 29°43' E 031°10'0 0.0
2016-Aug-17 00:33S 29°43' E 031°10'0 0.0
2016-Aug-16 23:33S 29°43' E 031°10'0 0.0
2016-Aug-16 22:33S 29°43' E 031°10'0 0.1
2016-Aug-16 21:33S 29°43' E 031°10'0 0.0
2016-Aug-16 20:33S 29°43' E 031°10'0 0.0
2016-Aug-16 19:33S 29°43' E 031°10'0 0.0
2016-Aug-16 18:33S 29°43' E 031°10'0 0.1
2016-Aug-16 17:33S 29°43' E 031°10'0 0.0
2016-Aug-16 16:33S 29°43' E 031°10'0 0.0
2016-Aug-16 15:32S 29°43' E 031°10'0 0.0
2016-Aug-16 14:32S 29°43' E 031°10'0 0.1
2016-Aug-16 13:32S 29°43' E 031°10'0 0.0
2016-Aug-16 12:32S 29°43' E 031°10'0 0.0
2016-Aug-16 11:32S 29°43' E 031°10'0 0.0
2016-Aug-16 10:32S 29°43' E 031°10'0 0.0
2016-Aug-16 09:32S 29°43' E 031°10'0 0.0
2016-Aug-16 08:32S 29°43' E 031°10'0 0.1
2016-Aug-16 07:32S 29°43' E 031°10'4 1.4
2016-Aug-16 05:00S 29°42' E 031°06'4 7.7 020 / 21029.3 2.2 19.117.3
2016-Aug-16 04:32S 29°43' E 031°10'0 0.0
2016-Aug-16 03:32S 29°43' E 031°10'0 0.0
2016-Aug-16 02:29S 29°43' E 031°10'0 0.0
2016-Aug-16 01:32S 29°43' E 031°10'0 0.0
2016-Aug-16 00:32S 29°43' E 031°10'0 0.0
2016-Aug-15 23:32S 29°43' E 031°10'0 0.1
2016-Aug-15 22:32S 29°43' E 031°10'0 0.0
2016-Aug-15 21:32S 29°43' E 031°10'0 0.0
2016-Aug-15 20:33S 29°43' E 031°10'0 0.0
2016-Aug-15 19:33S 29°43' E 031°10'0 0.0
2016-Aug-15 18:31S 29°43' E 031°10'3 6.7
2016-Aug-15 18:00S 29°42' E 031°06'4 7.3 030 / 141029.5 5.4 0.521.012.2
2016-Aug-15 17:31S 29°43' E 031°10'0 0.1
2016-Aug-15 16:33S 29°43' E 031°10'0 0.0
2016-Aug-15 15:32S 29°43' E 031°10'0 0.0
2016-Aug-15 14:32S 29°43' E 031°10'0 0.0
2016-Aug-15 13:32S 29°43' E 031°10'0 0.0
2016-Aug-15 12:32S 29°43' E 031°10'0 0.0
2016-Aug-15 11:32S 29°43' E 031°10'0 0.0
2016-Aug-15 10:32S 29°43' E 031°10'4 6.5
2016-Aug-15 10:00S 29°42' E 031°06'4 7.7 100 / 41029.710.8 0.522.011.321.0
2016-Aug-15 09:32S 29°43' E 031°10'4 6.5
2016-Aug-15 09:00S 29°42' E 031°06'4 7.7 080 / 31029.710.8 0.522.011.322.0
2016-Aug-15 08:32S 29°43' E 031°10'0 0.0
2016-Aug-15 07:32S 29°43' E 031°10'0 0.0
2016-Aug-15 06:32S 29°43' E 031°10'4 2.3
2016-Aug-15 05:00S 29°42' E 031°06'4 7.8 270 / 51028.310.8 0.518.113.0
2016-Aug-15 04:32S 29°43' E 031°10'0 0.0
2016-Aug-15 03:32S 29°43' E 031°10'0 0.0
2016-Aug-15 02:32S 29°43' E 031°10'0 0.0
2016-Aug-15 01:31S 29°43' E 031°10'0 0.0
2016-Aug-15 00:31S 29°43' E 031°10'0 0.0
2016-Aug-14 23:31S 29°43' E 031°10'0 0.0
2016-Aug-14 22:31S 29°43' E 031°10'0 0.0
2016-Aug-14 21:31S 29°43' E 031°10'0 0.0
2016-Aug-14 20:31S 29°43' E 031°10'0 0.0
2016-Aug-14 19:31S 29°43' E 031°10'0 0.0
2016-Aug-14 18:31S 29°43' E 031°10'4 6.8
2016-Aug-14 18:00S 29°42' E 031°06'4 7.5 170 / 61022.6 5.4 21.017.8
2016-Aug-14 17:31S 29°43' E 031°10'0 0.0
2016-Aug-14 16:31S 29°43' E 031°10'0 0.0
2016-Aug-14 15:31S 29°43' E 031°10'0 0.0
2016-Aug-14 14:31S 29°43' E 031°10'0 0.0
2016-Aug-14 13:31S 29°43' E 031°10'0 0.0
2016-Aug-14 12:31S 29°43' E 031°10'0 0.0
2016-Aug-14 11:28S 29°43' E 031°10'0 0.0
2016-Aug-14 10:31S 29°43' E 031°10'0 0.0
2016-Aug-14 09:31S 29°43' E 031°10'4 6.8
2016-Aug-14 09:00S 29°42' E 031°06'4 7.5 180 / 91013.9 5.4 0.522.018.921.0
2016-Aug-14 08:31S 29°43' E 031°10'0 0.0
2016-Aug-14 07:31S 29°43' E 031°10'0 0.0
2016-Aug-14 06:31S 29°43' E 031°10'4 6.8
2016-Aug-14 06:00S 29°42' E 031°06'4 2.4 060 / 121014.610.8 1.519.215.7
2016-Aug-14 04:31S 29°43' E 031°10'0 0.0
2016-Aug-14 03:31S 29°43' E 031°10'0 0.1
2016-Aug-14 02:31S 29°43' E 031°10'0 0.1
2016-Aug-14 01:31S 29°43' E 031°10'0 0.0
2016-Aug-14 00:31S 29°43' E 031°10'0 0.0
2016-Aug-13 23:31S 29°43' E 031°10'0 0.0
2016-Aug-13 22:31S 29°43' E 031°10'0 0.0
2016-Aug-13 21:31S 29°43' E 031°10'0 0.0
2016-Aug-13 20:31S 29°43' E 031°10'0 0.0
2016-Aug-13 19:31S 29°43' E 031°10'0 0.0
2016-Aug-13 18:31S 29°43' E 031°10'0 0.1
2016-Aug-13 17:31S 29°43' E 031°10'29 6.4
2016-Aug-13 13:00S 30°12' E 031°06'2416.5 020 / 171008.810.8 1.523.016.9
2016-Aug-13 11:33S 30°35' E 031°02'  
Track history (hours):
 
Tides and Currents Weather Stations Pressure Air Temp Water Temp Dewpoint Dewpoint Depression Visibility Wind Speed Wind Dir Waves Ship Positions

British Ensign

Last reported at 2016-Aug-23 11:31 UTC. Time now 2016-Aug-25 04:28 UTC.
Position S 29°37' E 032°00'.

Length 184.2 m; beam 27.4 m; draft 11.3 m.

Type: Ship. MMSI: 235010980.

Date/timePositionNaut miles runAvg speedWind from/ knotsBaromVisibWave heightAir tempDewpointWater temp
2016-Aug-23 11:31S 29°37' E 032°00'1111.8
2016-Aug-23 10:33S 29°40' E 031°48'1313.0
2016-Aug-23 09:34S 29°40' E 031°33'1414.5
2016-Aug-23 08:33S 29°43' E 031°17'4 4.0
2016-Aug-23 07:33S 29°39' E 031°17'4 4.0
2016-Aug-23 06:33S 29°43' E 031°19'6 6.1
2016-Aug-23 05:33S 29°48' E 031°22'3 5.7
2016-Aug-23 05:00S 29°48' E 031°18'510.4 220 / 171030.510.8 1.516.2 9.1
2016-Aug-23 04:33S 29°48' E 031°23'1 1.0
2016-Aug-23 03:34S 29°48' E 031°24'1 0.9
2016-Aug-23 02:34S 29°48' E 031°25'1 0.6
2016-Aug-23 01:34S 29°48' E 031°26'0 0.2
2016-Aug-23 00:33S 29°48' E 031°26'1 0.7
2016-Aug-22 23:33S 29°48' E 031°27'1 1.0
2016-Aug-22 22:34S 29°47' E 031°27'2 1.6
2016-Aug-22 21:34S 29°46' E 031°28'2 2.0
2016-Aug-22 20:34S 29°45' E 031°30'2 2.3
2016-Aug-22 19:34S 29°42' E 031°29'2 2.1
2016-Aug-22 18:34S 29°40' E 031°28'2 1.8
2016-Aug-22 17:33S 29°39' E 031°28'1 1.4
2016-Aug-22 16:34S 29°37' E 031°27'1 1.2
2016-Aug-22 15:34S 29°36' E 031°27'4 4.4
2016-Aug-22 14:34S 29°40' E 031°25'1010.0
2016-Aug-22 13:34S 29°50' E 031°23'3 2.6
2016-Aug-22 12:33S 29°52' E 031°24'2 2.4
2016-Aug-22 11:34S 29°51' E 031°26'2 1.8
2016-Aug-22 10:34S 29°49' E 031°26'2 2.3
2016-Aug-22 09:34S 29°47' E 031°27'3 3.4
2016-Aug-22 08:33S 29°44' E 031°29'3 2.9
2016-Aug-22 07:34S 29°42' E 031°31'1312.9
2016-Aug-22 06:34S 29°53' E 031°23'8 7.6
2016-Aug-22 05:33S 29°60' E 031°20'6 5.8
2016-Aug-22 04:33S 30°05' E 031°18'5 4.6
2016-Aug-22 03:33S 30°10' E 031°18'3 3.5
2016-Aug-22 02:33S 30°13' E 031°19'3 2.7
2016-Aug-22 01:34S 30°16' E 031°20'3 2.6
2016-Aug-22 00:33S 30°18' E 031°22'7 7.4
2016-Aug-21 23:33S 30°11' E 031°24'10 9.8
2016-Aug-21 22:33S 30°01' E 031°24'8 8.3
2016-Aug-21 21:33S 29°53' E 031°23'7 7.3
2016-Aug-21 20:33S 29°45' E 031°25'6 5.6
2016-Aug-21 19:33S 29°41' E 031°21'7 7.1
2016-Aug-21 18:33S 29°42' E 031°13'2 1.9
2016-Aug-21 17:33S 29°43' E 031°11'0 0.0
2016-Aug-21 16:33S 29°43' E 031°11'0 0.0
2016-Aug-21 15:34S 29°43' E 031°11'0 0.0
2016-Aug-21 14:33S 29°43' E 031°11'0 0.0
2016-Aug-21 13:33S 29°43' E 031°11'0 0.0
2016-Aug-21 12:33S 29°43' E 031°11'0 0.0
2016-Aug-21 11:33S 29°43' E 031°11'0 0.0
2016-Aug-21 10:33S 29°43' E 031°11'4 7.4
2016-Aug-21 10:00S 29°42' E 031°06'4 9.3 030 / 41015.7 5.4 20.014.922.0
2016-Aug-21 09:33S 29°43' E 031°11'0 0.0
2016-Aug-21 08:31S 29°43' E 031°11'0 0.0
2016-Aug-21 07:31S 29°43' E 031°11'0 0.0
2016-Aug-21 06:32S 29°43' E 031°11'0 0.0
2016-Aug-21 05:31S 29°43' E 031°11'0 0.0
2016-Aug-21 04:28S 29°43' E 031°11'0 0.0
2016-Aug-21 03:32S 29°43' E 031°11'0 0.0
2016-Aug-21 02:31S 29°43' E 031°11'0 0.0
2016-Aug-21 01:31S 29°43' E 031°11'0 0.0
2016-Aug-21 00:31S 29°43' E 031°11'0 0.0
2016-Aug-20 23:31S 29°43' E 031°11'0 0.0
2016-Aug-20 22:32S 29°43' E 031°11'0 0.0
2016-Aug-20 21:31S 29°43' E 031°11'0 0.0
2016-Aug-20 20:31S 29°43' E 031°11'0 0.0
2016-Aug-20 19:31S 29°43' E 031°11'0 0.0
2016-Aug-20 18:28S 29°43' E 031°11'0 0.0
2016-Aug-20 17:31S 29°43' E 031°11'0 0.0
2016-Aug-20 16:31S 29°43' E 031°11'2 1.6
2016-Aug-20 15:34S 29°44' E 031°10'1111.0
2016-Aug-20 14:34S 29°53' E 031°03'1 0.6
2016-Aug-20 13:31S 29°53' E 031°02'0 0.0
2016-Aug-19 10:33S 29°53' E 031°02'5 4.6
2016-Aug-19 09:34S 29°50' E 031°05'6 6.4
2016-Aug-19 08:33S 29°45' E 031°10'2 1.8
2016-Aug-19 07:33S 29°43' E 031°10'0 0.0
2016-Aug-19 06:32S 29°43' E 031°10'0 0.0
2016-Aug-19 05:32S 29°43' E 031°10'4 6.5
2016-Aug-19 05:00S 29°42' E 031°06'4 0.4 1014.9 5.4 19.415.7
2016-Aug-18 20:26S 29°43' E 031°10'0 0.0
2016-Aug-18 19:32S 29°43' E 031°10'0 0.0
2016-Aug-18 18:32S 29°43' E 031°10'0 0.0
2016-Aug-18 17:23S 29°43' E 031°10'0 0.0
2016-Aug-18 16:29S 29°43' E 031°10'0 0.0
2016-Aug-18 15:29S 29°43' E 031°10'0 0.1
2016-Aug-18 14:31S 29°43' E 031°10'0 0.0
2016-Aug-18 13:31S 29°43' E 031°10'0 0.0
2016-Aug-18 12:31S 29°43' E 031°10'0 0.0
2016-Aug-18 11:31S 29°43' E 031°10'0 0.0
2016-Aug-18 10:31S 29°43' E 031°10'4 6.7
2016-Aug-18 10:00S 29°42' E 031°06'4 7.5 030 / 101022.710.8 0.522.018.923.0
2016-Aug-18 09:31S 29°43' E 031°10'4 6.7
2016-Aug-18 09:00S 29°42' E 031°06'4 6.7 030 / 101022.710.8 0.522.018.923.0
2016-Aug-18 08:28S 29°43' E 031°10'0 0.0
2016-Aug-18 07:31S 29°43' E 031°10'0 0.1
2016-Aug-18 06:31S 29°43' E 031°10'0 0.0
2016-Aug-18 05:31S 29°43' E 031°10'4 6.7
2016-Aug-18 05:00S 29°42' E 031°06'4 7.5 1023.6 5.4 18.917.3
2016-Aug-18 04:31S 29°43' E 031°10'0 0.0
2016-Aug-18 03:28S 29°43' E 031°10'0 0.0
2016-Aug-18 02:31S 29°43' E 031°10'0 0.1
2016-Aug-18 01:31S 29°43' E 031°10'0 0.1
2016-Aug-18 00:31S 29°43' E 031°10'0 0.1
2016-Aug-17 23:31S 29°43' E 031°10'0 0.0
2016-Aug-17 22:28S 29°43' E 031°10'0 0.0
2016-Aug-17 21:32S 29°43' E 031°10'0 0.0
2016-Aug-17 20:32S 29°43' E 031°10'0 0.0
2016-Aug-17 19:32S 29°43' E 031°10'0 0.1
2016-Aug-17 18:29S 29°43' E 031°10'0 0.0
2016-Aug-17 17:32S 29°43' E 031°10'0 0.0
2016-Aug-17 16:33S 29°43' E 031°10'0 0.0
2016-Aug-17 15:33S 29°43' E 031°10'0 0.0
2016-Aug-17 14:30S 29°43' E 031°10'0 0.0
2016-Aug-17 13:33S 29°43' E 031°10'0 0.0
2016-Aug-17 12:33S 29°43' E 031°10'0 0.0
2016-Aug-17 11:33S 29°43' E 031°10'0 0.0
2016-Aug-17 10:30S 29°43' E 031°10'0 0.1
2016-Aug-17 09:33S 29°43' E 031°10'4 6.3
2016-Aug-17 09:00S 29°42' E 031°06'4 8.0 050 / 131027.410.8 22.018.922.0
2016-Aug-17 08:33S 29°43' E 031°10'0 0.0
2016-Aug-17 07:33S 29°43' E 031°10'0 0.0
2016-Aug-17 06:34S 29°43' E 031°10'0 0.0
2016-Aug-17 05:33S 29°43' E 031°10'4 6.3
2016-Aug-17 05:00S 29°42' E 031°06'4 7.1 170 / 71028.0 5.4 0.5
2016-Aug-17 04:30S 29°43' E 031°10'0 0.0
2016-Aug-17 03:33S 29°43' E 031°10'0 0.0
2016-Aug-17 02:33S 29°43' E 031°10'0 0.0
2016-Aug-17 01:33S 29°43' E 031°10'0 0.0
2016-Aug-17 00:33S 29°43' E 031°10'0 0.0
2016-Aug-16 23:33S 29°43' E 031°10'0 0.0
2016-Aug-16 22:33S 29°43' E 031°10'0 0.1
2016-Aug-16 21:33S 29°43' E 031°10'0 0.0
2016-Aug-16 20:33S 29°43' E 031°10'0 0.0
2016-Aug-16 19:33S 29°43' E 031°10'0 0.0
2016-Aug-16 18:33S 29°43' E 031°10'0 0.1
2016-Aug-16 17:33S 29°43' E 031°10'0 0.0
2016-Aug-16 16:33S 29°43' E 031°10'0 0.0
2016-Aug-16 15:32S 29°43' E 031°10'0 0.0
2016-Aug-16 14:32S 29°43' E 031°10'0 0.1
2016-Aug-16 13:32S 29°43' E 031°10'0 0.0
2016-Aug-16 12:32S 29°43' E 031°10'0 0.0
2016-Aug-16 11:32S 29°43' E 031°10'0 0.0
2016-Aug-16 10:32S 29°43' E 031°10'0 0.0
2016-Aug-16 09:32S 29°43' E 031°10'0 0.0
2016-Aug-16 08:32S 29°43' E 031°10'0 0.1
2016-Aug-16 07:32S 29°43' E 031°10'4 1.4
2016-Aug-16 05:00S 29°42' E 031°06'4 7.7 020 / 21029.3 2.2 19.117.3
2016-Aug-16 04:32S 29°43' E 031°10'0 0.0
2016-Aug-16 03:32S 29°43' E 031°10'0 0.0
2016-Aug-16 02:29S 29°43' E 031°10'0 0.0
2016-Aug-16 01:32S 29°43' E 031°10'0 0.0
2016-Aug-16 00:32S 29°43' E 031°10'0 0.0
2016-Aug-15 23:32S 29°43' E 031°10'0 0.1
2016-Aug-15 22:32S 29°43' E 031°10'0 0.0
2016-Aug-15 21:32S 29°43' E 031°10'0 0.0
2016-Aug-15 20:33S 29°43' E 031°10'0 0.0
2016-Aug-15 19:33S 29°43' E 031°10'0 0.0
2016-Aug-15 18:31S 29°43' E 031°10'3 6.7
2016-Aug-15 18:00S 29°42' E 031°06'4 7.3 030 / 141029.5 5.4 0.521.012.2
2016-Aug-15 17:31S 29°43' E 031°10'0 0.1
2016-Aug-15 16:33S 29°43' E 031°10'0 0.0
2016-Aug-15 15:32S 29°43' E 031°10'0 0.0
2016-Aug-15 14:32S 29°43' E 031°10'0 0.0
2016-Aug-15 13:32S 29°43' E 031°10'0 0.0
2016-Aug-15 12:32S 29°43' E 031°10'0 0.0
2016-Aug-15 11:32S 29°43' E 031°10'0 0.0
2016-Aug-15 10:32S 29°43' E 031°10'4 6.5
2016-Aug-15 10:00S 29°42' E 031°06'4 7.7 100 / 41029.710.8 0.522.011.321.0
2016-Aug-15 09:32S 29°43' E 031°10'4 6.5
2016-Aug-15 09:00S 29°42' E 031°06'4 7.7 080 / 31029.710.8 0.522.011.322.0
2016-Aug-15 08:32S 29°43' E 031°10'0 0.0
2016-Aug-15 07:32S 29°43' E 031°10'0 0.0
2016-Aug-15 06:32S 29°43' E 031°10'4 2.3
2016-Aug-15 05:00S 29°42' E 031°06'4 7.8 270 / 51028.310.8 0.518.113.0
2016-Aug-15 04:32S 29°43' E 031°10'0 0.0
2016-Aug-15 03:32S 29°43' E 031°10'0 0.0
2016-Aug-15 02:32S 29°43' E 031°10'0 0.0
2016-Aug-15 01:31S 29°43' E 031°10'0 0.0
2016-Aug-15 00:31S 29°43' E 031°10'0 0.0
2016-Aug-14 23:31S 29°43' E 031°10'0 0.0
2016-Aug-14 22:31S 29°43' E 031°10'0 0.0
2016-Aug-14 21:31S 29°43' E 031°10'0 0.0
2016-Aug-14 20:31S 29°43' E 031°10'0 0.0
2016-Aug-14 19:31S 29°43' E 031°10'0 0.0
2016-Aug-14 18:31S 29°43' E 031°10'4 6.8
2016-Aug-14 18:00S 29°42' E 031°06'4 7.5 170 / 61022.6 5.4 21.017.8
2016-Aug-14 17:31S 29°43' E 031°10'0 0.0
2016-Aug-14 16:31S 29°43' E 031°10'0 0.0
2016-Aug-14 15:31S 29°43' E 031°10'0 0.0
2016-Aug-14 14:31S 29°43' E 031°10'0 0.0
2016-Aug-14 13:31S 29°43' E 031°10'0 0.0
2016-Aug-14 12:31S 29°43' E 031°10'0 0.0
2016-Aug-14 11:28S 29°43' E 031°10'0 0.0
2016-Aug-14 10:31S 29°43' E 031°10'0 0.0
2016-Aug-14 09:31S 29°43' E 031°10'4 6.8
2016-Aug-14 09:00S 29°42' E 031°06'4 7.5 180 / 91013.9 5.4 0.522.018.921.0
2016-Aug-14 08:31S 29°43' E 031°10'0 0.0
2016-Aug-14 07:31S 29°43' E 031°10'0 0.0
2016-Aug-14 06:31S 29°43' E 031°10'4 6.8
2016-Aug-14 06:00S 29°42' E 031°06'4 2.4 060 / 121014.610.8 1.519.215.7
2016-Aug-14 04:31S 29°43' E 031°10'0 0.0
2016-Aug-14 03:31S 29°43' E 031°10'0 0.1
2016-Aug-14 02:31S 29°43' E 031°10'0 0.1
2016-Aug-14 01:31S 29°43' E 031°10'0 0.0
2016-Aug-14 00:31S 29°43' E 031°10'0 0.0
2016-Aug-13 23:31S 29°43' E 031°10'0 0.0
2016-Aug-13 22:31S 29°43' E 031°10'0 0.0
2016-Aug-13 21:31S 29°43' E 031°10'0 0.0
2016-Aug-13 20:31S 29°43' E 031°10'0 0.0
2016-Aug-13 19:31S 29°43' E 031°10'0 0.0
2016-Aug-13 18:31S 29°43' E 031°10'0 0.1
2016-Aug-13 17:31S 29°43' E 031°10'29 6.4
2016-Aug-13 13:00S 30°12' E 031°06'2416.5 020 / 171008.810.8 1.523.016.9
2016-Aug-13 11:33S 30°35' E 031°02'  

Dump ship's entire track history